sensor_id;sensor_type;location;lat;lon;timestamp;P1;durP1;ratioP1;P2;durP2;ratioP2
35897;SDS011;21997;47.118;15.346;2022-07-06T00:01:08;4.03;;;3.20;;
35897;SDS011;21997;47.118;15.346;2022-07-06T00:03:34;4.23;;;3.40;;
35897;SDS011;21997;47.118;15.346;2022-07-06T00:05:59;6.47;;;3.37;;
35897;SDS011;21997;47.118;15.346;2022-07-06T00:08:24;4.73;;;3.20;;
35897;SDS011;21997;47.118;15.346;2022-07-06T00:10:50;5.20;;;3.47;;
35897;SDS011;21997;47.118;15.346;2022-07-06T00:13:15;6.37;;;3.60;;
35897;SDS011;21997;47.118;15.346;2022-07-06T00:15:40;4.50;;;3.23;;
35897;SDS011;21997;47.118;15.346;2022-07-06T00:18:06;3.53;;;2.80;;
35897;SDS011;21997;47.118;15.346;2022-07-06T00:20:31;3.57;;;2.70;;
35897;SDS011;21997;47.118;15.346;2022-07-06T00:22:57;3.30;;;3.00;;
35897;SDS011;21997;47.118;15.346;2022-07-06T00:25:22;3.50;;;3.10;;
35897;SDS011;21997;47.118;15.346;2022-07-06T00:27:47;3.57;;;3.27;;
35897;SDS011;21997;47.118;15.346;2022-07-06T00:30:13;4.13;;;3.73;;
35897;SDS011;21997;47.118;15.346;2022-07-06T00:32:38;5.57;;;3.60;;
35897;SDS011;21997;47.118;15.346;2022-07-06T00:35:04;7.33;;;3.23;;
35897;SDS011;21997;47.118;15.346;2022-07-06T00:37:30;4.23;;;3.73;;
35897;SDS011;21997;47.118;15.346;2022-07-06T00:39:55;3.70;;;3.33;;
35897;SDS011;21997;47.118;15.346;2022-07-06T00:42:21;5.20;;;3.23;;
35897;SDS011;21997;47.118;15.346;2022-07-06T00:44:46;8.80;;;3.40;;
35897;SDS011;21997;47.118;15.346;2022-07-06T00:47:11;4.23;;;3.30;;
35897;SDS011;21997;47.118;15.346;2022-07-06T00:49:37;7.27;;;3.53;;
35897;SDS011;21997;47.118;15.346;2022-07-06T00:52:21;4.27;;;3.17;;
35897;SDS011;21997;47.118;15.346;2022-07-06T00:54:47;3.53;;;3.23;;
35897;SDS011;21997;47.118;15.346;2022-07-06T00:57:12;4.40;;;3.47;;
35897;SDS011;21997;47.118;15.346;2022-07-06T00:59:38;4.70;;;3.13;;
35897;SDS011;21997;47.118;15.346;2022-07-06T01:02:03;6.23;;;3.40;;
35897;SDS011;21997;47.118;15.346;2022-07-06T01:04:29;3.43;;;3.13;;
35897;SDS011;21997;47.118;15.346;2022-07-06T01:06:54;4.13;;;3.73;;
35897;SDS011;21997;47.118;15.346;2022-07-06T01:09:21;3.53;;;3.20;;
35897;SDS011;21997;47.118;15.346;2022-07-06T01:11:46;5.17;;;3.57;;
35897;SDS011;21997;47.118;15.346;2022-07-06T01:14:12;6.13;;;3.30;;
35897;SDS011;21997;47.118;15.346;2022-07-06T01:16:39;4.10;;;3.67;;
35897;SDS011;21997;47.118;15.346;2022-07-06T01:19:04;5.50;;;3.10;;
35897;SDS011;21997;47.118;15.346;2022-07-06T01:21:29;4.03;;;3.67;;
35897;SDS011;21997;47.118;15.346;2022-07-06T01:23:55;4.73;;;3.30;;
35897;SDS011;21997;47.118;15.346;2022-07-06T01:26:20;3.80;;;3.20;;
35897;SDS011;21997;47.118;15.346;2022-07-06T01:28:49;4.73;;;3.30;;
35897;SDS011;21997;47.118;15.346;2022-07-06T01:31:23;4.23;;;3.57;;
35897;SDS011;21997;47.118;15.346;2022-07-06T01:33:50;3.60;;;3.30;;
35897;SDS011;21997;47.118;15.346;2022-07-06T01:36:17;4.33;;;3.30;;
35897;SDS011;21997;47.118;15.346;2022-07-06T01:38:46;3.83;;;3.53;;
35897;SDS011;21997;47.118;15.346;2022-07-06T01:41:13;3.80;;;3.50;;
35897;SDS011;21997;47.118;15.346;2022-07-06T01:43:38;3.00;;;2.80;;
35897;SDS011;21997;47.118;15.346;2022-07-06T01:46:04;5.10;;;3.40;;
35897;SDS011;21997;47.118;15.346;2022-07-06T01:48:30;4.03;;;3.63;;
35897;SDS011;21997;47.118;15.346;2022-07-06T01:50:55;4.67;;;4.20;;
35897;SDS011;21997;47.118;15.346;2022-07-06T01:53:20;5.03;;;3.77;;
35897;SDS011;21997;47.118;15.346;2022-07-06T01:55:46;5.90;;;4.10;;
35897;SDS011;21997;47.118;15.346;2022-07-06T01:58:11;4.77;;;4.17;;
35897;SDS011;21997;47.118;15.346;2022-07-06T02:00:36;6.73;;;4.17;;
35897;SDS011;21997;47.118;15.346;2022-07-06T02:03:02;4.90;;;4.00;;
35897;SDS011;21997;47.118;15.346;2022-07-06T02:05:27;5.40;;;3.93;;
35897;SDS011;21997;47.118;15.346;2022-07-06T02:07:53;5.17;;;4.03;;
35897;SDS011;21997;47.118;15.346;2022-07-06T02:10:18;4.43;;;3.80;;
35897;SDS011;21997;47.118;15.346;2022-07-06T02:12:43;5.77;;;3.87;;
35897;SDS011;21997;47.118;15.346;2022-07-06T02:15:09;8.27;;;4.37;;
35897;SDS011;21997;47.118;15.346;2022-07-06T02:17:34;8.10;;;4.40;;
35897;SDS011;21997;47.118;15.346;2022-07-06T02:20:00;6.17;;;4.53;;
35897;SDS011;21997;47.118;15.346;2022-07-06T02:22:25;5.37;;;4.17;;
35897;SDS011;21997;47.118;15.346;2022-07-06T02:24:51;5.03;;;4.33;;
35897;SDS011;21997;47.118;15.346;2022-07-06T02:27:16;8.20;;;4.33;;
35897;SDS011;21997;47.118;15.346;2022-07-06T02:29:41;6.27;;;5.10;;
35897;SDS011;21997;47.118;15.346;2022-07-06T02:32:07;6.10;;;4.57;;
35897;SDS011;21997;47.118;15.346;2022-07-06T02:34:32;4.83;;;4.13;;
35897;SDS011;21997;47.118;15.346;2022-07-06T02:36:58;4.37;;;3.97;;
35897;SDS011;21997;47.118;15.346;2022-07-06T02:39:25;8.27;;;4.07;;
35897;SDS011;21997;47.118;15.346;2022-07-06T02:41:50;4.60;;;3.93;;
35897;SDS011;21997;47.118;15.346;2022-07-06T02:44:16;6.53;;;4.37;;
35897;SDS011;21997;47.118;15.346;2022-07-06T02:46:41;4.90;;;4.40;;
35897;SDS011;21997;47.118;15.346;2022-07-06T02:49:06;8.83;;;4.07;;
35897;SDS011;21997;47.118;15.346;2022-07-06T02:51:32;7.63;;;4.37;;
35897;SDS011;21997;47.118;15.346;2022-07-06T02:53:57;6.33;;;4.30;;
35897;SDS011;21997;47.118;15.346;2022-07-06T02:56:22;6.43;;;4.07;;
35897;SDS011;21997;47.118;15.346;2022-07-06T02:58:48;7.90;;;5.67;;
35897;SDS011;21997;47.118;15.346;2022-07-06T03:01:13;8.73;;;4.30;;
35897;SDS011;21997;47.118;15.346;2022-07-06T03:03:39;4.60;;;4.00;;
35897;SDS011;21997;47.118;15.346;2022-07-06T03:06:04;4.53;;;4.17;;
35897;SDS011;21997;47.118;15.346;2022-07-06T03:08:29;5.97;;;4.20;;
35897;SDS011;21997;47.118;15.346;2022-07-06T03:10:55;4.53;;;3.70;;
35897;SDS011;21997;47.118;15.346;2022-07-06T03:13:20;4.63;;;3.97;;
35897;SDS011;21997;47.118;15.346;2022-07-06T03:15:45;5.63;;;3.60;;
35897;SDS011;21997;47.118;15.346;2022-07-06T03:18:11;4.70;;;4.30;;
35897;SDS011;21997;47.118;15.346;2022-07-06T03:20:36;4.70;;;4.20;;
35897;SDS011;21997;47.118;15.346;2022-07-06T03:23:02;9.03;;;4.30;;
35897;SDS011;21997;47.118;15.346;2022-07-06T03:25:27;5.33;;;4.13;;
35897;SDS011;21997;47.118;15.346;2022-07-06T03:27:53;5.43;;;4.37;;
35897;SDS011;21997;47.118;15.346;2022-07-06T03:30:18;5.73;;;3.83;;
35897;SDS011;21997;47.118;15.346;2022-07-06T03:32:43;4.63;;;4.00;;
35897;SDS011;21997;47.118;15.346;2022-07-06T03:35:09;5.47;;;4.20;;
35897;SDS011;21997;47.118;15.346;2022-07-06T03:37:34;5.17;;;4.37;;
35897;SDS011;21997;47.118;15.346;2022-07-06T03:39:59;6.03;;;3.87;;
35897;SDS011;21997;47.118;15.346;2022-07-06T03:42:25;5.03;;;4.20;;
35897;SDS011;21997;47.118;15.346;2022-07-06T03:44:50;4.43;;;4.00;;
35897;SDS011;21997;47.118;15.346;2022-07-06T03:47:16;8.50;;;4.27;;
35897;SDS011;21997;47.118;15.346;2022-07-06T03:49:41;4.80;;;4.25;;
35897;SDS011;21997;47.118;15.346;2022-07-06T03:52:06;8.40;;;4.40;;
35897;SDS011;21997;47.118;15.346;2022-07-06T03:54:32;4.50;;;4.10;;
35897;SDS011;21997;47.118;15.346;2022-07-06T03:56:57;4.00;;;3.60;;
35897;SDS011;21997;47.118;15.346;2022-07-06T03:59:22;6.50;;;4.10;;
35897;SDS011;21997;47.118;15.346;2022-07-06T04:01:48;5.90;;;4.13;;
35897;SDS011;21997;47.118;15.346;2022-07-06T04:04:14;5.17;;;4.27;;
35897;SDS011;21997;47.118;15.346;2022-07-06T04:06:39;5.73;;;4.40;;
35897;SDS011;21997;47.118;15.346;2022-07-06T04:09:04;6.43;;;4.13;;
35897;SDS011;21997;47.118;15.346;2022-07-06T04:11:30;8.30;;;4.60;;
35897;SDS011;21997;47.118;15.346;2022-07-06T04:13:55;4.67;;;4.00;;
35897;SDS011;21997;47.118;15.346;2022-07-06T04:16:21;7.83;;;4.47;;
35897;SDS011;21997;47.118;15.346;2022-07-06T04:18:46;4.47;;;4.07;;
35897;SDS011;21997;47.118;15.346;2022-07-06T04:21:12;11.17;;;4.40;;
35897;SDS011;21997;47.118;15.346;2022-07-06T04:23:37;5.20;;;4.43;;
35897;SDS011;21997;47.118;15.346;2022-07-06T04:26:03;4.37;;;4.00;;
35897;SDS011;21997;47.118;15.346;2022-07-06T04:28:28;4.87;;;4.17;;
35897;SDS011;21997;47.118;15.346;2022-07-06T04:30:54;5.17;;;4.40;;
35897;SDS011;21997;47.118;15.346;2022-07-06T04:33:19;10.93;;;5.67;;
35897;SDS011;21997;47.118;15.346;2022-07-06T04:35:45;4.70;;;4.30;;
35897;SDS011;21997;47.118;15.346;2022-07-06T04:38:10;8.20;;;4.97;;
35897;SDS011;21997;47.118;15.346;2022-07-06T04:40:35;6.87;;;3.77;;
35897;SDS011;21997;47.118;15.346;2022-07-06T04:43:01;6.10;;;4.00;;
35897;SDS011;21997;47.118;15.346;2022-07-06T04:45:26;7.60;;;4.90;;
35897;SDS011;21997;47.118;15.346;2022-07-06T04:47:52;4.70;;;4.30;;
35897;SDS011;21997;47.118;15.346;2022-07-06T04:50:17;5.23;;;3.83;;
35897;SDS011;21997;47.118;15.346;2022-07-06T04:52:42;6.87;;;4.20;;
35897;SDS011;21997;47.118;15.346;2022-07-06T04:55:08;6.47;;;4.70;;
35897;SDS011;21997;47.118;15.346;2022-07-06T04:57:35;5.50;;;4.17;;
35897;SDS011;21997;47.118;15.346;2022-07-06T05:00:00;5.10;;;4.57;;
35897;SDS011;21997;47.118;15.346;2022-07-06T05:02:26;4.87;;;4.00;;
35897;SDS011;21997;47.118;15.346;2022-07-06T05:04:51;5.20;;;4.40;;
35897;SDS011;21997;47.118;15.346;2022-07-06T05:07:17;5.10;;;4.57;;
35897;SDS011;21997;47.118;15.346;2022-07-06T05:09:43;7.13;;;4.00;;
35897;SDS011;21997;47.118;15.346;2022-07-06T05:12:08;8.73;;;4.13;;
35897;SDS011;21997;47.118;15.346;2022-07-06T05:14:34;5.23;;;4.17;;
35897;SDS011;21997;47.118;15.346;2022-07-06T05:17:00;6.53;;;3.77;;
35897;SDS011;21997;47.118;15.346;2022-07-06T05:19:26;8.20;;;4.10;;
35897;SDS011;21997;47.118;15.346;2022-07-06T05:21:51;7.87;;;4.40;;
35897;SDS011;21997;47.118;15.346;2022-07-06T05:24:16;9.47;;;4.10;;
35897;SDS011;21997;47.118;15.346;2022-07-06T05:26:43;4.90;;;4.07;;
35897;SDS011;21997;47.118;15.346;2022-07-06T05:29:09;6.23;;;4.00;;
35897;SDS011;21997;47.118;15.346;2022-07-06T05:31:34;5.43;;;3.87;;
35897;SDS011;21997;47.118;15.346;2022-07-06T05:34:00;5.80;;;4.07;;
35897;SDS011;21997;47.118;15.346;2022-07-06T05:36:25;6.90;;;4.20;;
35897;SDS011;21997;47.118;15.346;2022-07-06T05:38:50;9.10;;;3.90;;
35897;SDS011;21997;47.118;15.346;2022-07-06T05:41:16;6.07;;;4.17;;
35897;SDS011;21997;47.118;15.346;2022-07-06T05:43:41;7.23;;;3.97;;
35897;SDS011;21997;47.118;15.346;2022-07-06T05:46:07;4.07;;;3.07;;
35897;SDS011;21997;47.118;15.346;2022-07-06T05:48:32;4.90;;;3.23;;
35897;SDS011;21997;47.118;15.346;2022-07-06T05:51:16;6.83;;;3.23;;
35897;SDS011;21997;47.118;15.346;2022-07-06T05:53:41;5.00;;;3.30;;
35897;SDS011;21997;47.118;15.346;2022-07-06T05:56:08;7.27;;;3.40;;
35897;SDS011;21997;47.118;15.346;2022-07-06T05:58:34;6.13;;;3.27;;
35897;SDS011;21997;47.118;15.346;2022-07-06T06:00:59;3.93;;;3.37;;
35897;SDS011;21997;47.118;15.346;2022-07-06T06:03:25;5.10;;;3.47;;
35897;SDS011;21997;47.118;15.346;2022-07-06T06:05:50;5.30;;;3.97;;
35897;SDS011;21997;47.118;15.346;2022-07-06T06:08:16;3.50;;;3.13;;
35897;SDS011;21997;47.118;15.346;2022-07-06T06:10:41;3.50;;;3.20;;
35897;SDS011;21997;47.118;15.346;2022-07-06T06:13:07;6.60;;;4.37;;
35897;SDS011;21997;47.118;15.346;2022-07-06T06:15:33;5.13;;;3.70;;
35897;SDS011;21997;47.118;15.346;2022-07-06T06:18:00;3.53;;;3.10;;
35897;SDS011;21997;47.118;15.346;2022-07-06T06:20:26;4.37;;;3.23;;
35897;SDS011;21997;47.118;15.346;2022-07-06T06:22:52;3.73;;;2.77;;
35897;SDS011;21997;47.118;15.346;2022-07-06T06:25:19;5.30;;;3.10;;
35897;SDS011;21997;47.118;15.346;2022-07-06T06:27:46;8.20;;;3.30;;
35897;SDS011;21997;47.118;15.346;2022-07-06T06:30:11;5.43;;;3.00;;
35897;SDS011;21997;47.118;15.346;2022-07-06T06:32:37;3.27;;;2.10;;
35897;SDS011;21997;47.118;15.346;2022-07-06T06:35:03;6.13;;;3.00;;
35897;SDS011;21997;47.118;15.346;2022-07-06T06:37:29;5.17;;;2.97;;
35897;SDS011;21997;47.118;15.346;2022-07-06T06:39:55;4.73;;;3.20;;
35897;SDS011;21997;47.118;15.346;2022-07-06T06:42:20;6.63;;;3.73;;
35897;SDS011;21997;47.118;15.346;2022-07-06T06:44:45;8.73;;;3.40;;
35897;SDS011;21997;47.118;15.346;2022-07-06T06:47:11;7.80;;;3.67;;
35897;SDS011;21997;47.118;15.346;2022-07-06T06:49:36;8.47;;;3.43;;
35897;SDS011;21997;47.118;15.346;2022-07-06T06:52:02;5.77;;;3.13;;
35897;SDS011;21997;47.118;15.346;2022-07-06T06:54:27;3.47;;;2.97;;
35897;SDS011;21997;47.118;15.346;2022-07-06T06:56:53;6.20;;;3.47;;
35897;SDS011;21997;47.118;15.346;2022-07-06T06:59:18;8.40;;;3.53;;
35897;SDS011;21997;47.118;15.346;2022-07-06T07:01:44;8.70;;;3.77;;
35897;SDS011;21997;47.118;15.346;2022-07-06T07:04:09;4.50;;;3.33;;
35897;SDS011;21997;47.118;15.346;2022-07-06T07:06:34;6.50;;;3.60;;
35897;SDS011;21997;47.118;15.346;2022-07-06T07:09:00;7.70;;;3.53;;
35897;SDS011;21997;47.118;15.346;2022-07-06T07:11:25;9.07;;;3.20;;
35897;SDS011;21997;47.118;15.346;2022-07-06T07:13:51;7.10;;;3.00;;
35897;SDS011;21997;47.118;15.346;2022-07-06T07:16:16;4.10;;;3.10;;
35897;SDS011;21997;47.118;15.346;2022-07-06T07:18:42;6.33;;;3.23;;
35897;SDS011;21997;47.118;15.346;2022-07-06T07:21:07;6.27;;;3.37;;
35897;SDS011;21997;47.118;15.346;2022-07-06T07:23:32;5.27;;;3.70;;
35897;SDS011;21997;47.118;15.346;2022-07-06T07:25:58;8.03;;;3.20;;
35897;SDS011;21997;47.118;15.346;2022-07-06T07:28:23;5.63;;;3.53;;
35897;SDS011;21997;47.118;15.346;2022-07-06T07:30:48;5.47;;;3.60;;
35897;SDS011;21997;47.118;15.346;2022-07-06T07:33:15;4.47;;;3.07;;
35897;SDS011;21997;47.118;15.346;2022-07-06T07:35:40;7.33;;;2.77;;
35897;SDS011;21997;47.118;15.346;2022-07-06T07:38:06;6.27;;;2.80;;
35897;SDS011;21997;47.118;15.346;2022-07-06T07:40:31;4.90;;;2.30;;
35897;SDS011;21997;47.118;15.346;2022-07-06T07:42:58;7.17;;;2.73;;
35897;SDS011;21997;47.118;15.346;2022-07-06T07:45:23;4.53;;;2.00;;
35897;SDS011;21997;47.118;15.346;2022-07-06T07:47:49;4.85;;;2.60;;
35897;SDS011;21997;47.118;15.346;2022-07-06T07:50:14;4.93;;;2.77;;
35897;SDS011;21997;47.118;15.346;2022-07-06T07:52:39;4.07;;;2.40;;
35897;SDS011;21997;47.118;15.346;2022-07-06T07:55:05;3.80;;;2.40;;
35897;SDS011;21997;47.118;15.346;2022-07-06T07:57:31;2.97;;;2.65;;
35897;SDS011;21997;47.118;15.346;2022-07-06T07:59:56;2.53;;;2.00;;
35897;SDS011;21997;47.118;15.346;2022-07-06T08:02:22;4.05;;;2.00;;
35897;SDS011;21997;47.118;15.346;2022-07-06T08:04:47;6.55;;;2.70;;
35897;SDS011;21997;47.118;15.346;2022-07-06T08:07:12;6.40;;;2.50;;
35897;SDS011;21997;47.118;15.346;2022-07-06T08:09:38;4.53;;;2.22;;
35897;SDS011;21997;47.118;15.346;2022-07-06T08:12:03;1.90;;;1.45;;
35897;SDS011;21997;47.118;15.346;2022-07-06T08:14:29;2.22;;;1.60;;
35897;SDS011;21997;47.118;15.346;2022-07-06T08:16:54;1.48;;;1.38;;
35897;SDS011;21997;47.118;15.346;2022-07-06T08:19:19;4.93;;;1.48;;
35897;SDS011;21997;47.118;15.346;2022-07-06T08:21:45;2.88;;;1.45;;
35897;SDS011;21997;47.118;15.346;2022-07-06T08:24:10;3.95;;;1.15;;
35897;SDS011;21997;47.118;15.346;2022-07-06T08:26:36;3.38;;;1.23;;
35897;SDS011;21997;47.118;15.346;2022-07-06T08:29:02;1.10;;;1.00;;
35897;SDS011;21997;47.118;15.346;2022-07-06T08:31:27;2.08;;;1.17;;
35897;SDS011;21997;47.118;15.346;2022-07-06T08:33:53;1.40;;;0.93;;
35897;SDS011;21997;47.118;15.346;2022-07-06T08:36:19;2.95;;;1.05;;
35897;SDS011;21997;47.118;15.346;2022-07-06T08:38:45;1.05;;;0.95;;
35897;SDS011;21997;47.118;15.346;2022-07-06T08:41:11;1.67;;;1.00;;
35897;SDS011;21997;47.118;15.346;2022-07-06T08:43:38;0.98;;;0.90;;
35897;SDS011;21997;47.118;15.346;2022-07-06T08:46:04;2.20;;;1.00;;
35897;SDS011;21997;47.118;15.346;2022-07-06T08:48:31;1.33;;;0.93;;
35897;SDS011;21997;47.118;15.346;2022-07-06T08:51:01;3.20;;;1.10;;
35897;SDS011;21997;47.118;15.346;2022-07-06T08:53:26;1.17;;;1.08;;
35897;SDS011;21997;47.118;15.346;2022-07-06T08:55:52;1.45;;;0.93;;
35897;SDS011;21997;47.118;15.346;2022-07-06T08:58:17;3.08;;;1.17;;
35897;SDS011;21997;47.118;15.346;2022-07-06T09:00:43;3.55;;;1.00;;
35897;SDS011;21997;47.118;15.346;2022-07-06T09:03:10;2.10;;;1.23;;
35897;SDS011;21997;47.118;15.346;2022-07-06T09:05:36;2.05;;;0.90;;
35897;SDS011;21997;47.118;15.346;2022-07-06T09:08:02;1.90;;;1.20;;
35897;SDS011;21997;47.118;15.346;2022-07-06T09:10:28;1.95;;;1.00;;
35897;SDS011;21997;47.118;15.346;2022-07-06T09:12:53;3.13;;;0.80;;
35897;SDS011;21997;47.118;15.346;2022-07-06T09:15:27;1.23;;;0.80;;
35897;SDS011;21997;47.118;15.346;2022-07-06T09:17:53;1.70;;;1.13;;
35897;SDS011;21997;47.118;15.346;2022-07-06T09:20:20;2.10;;;1.10;;
35897;SDS011;21997;47.118;15.346;2022-07-06T09:22:46;2.70;;;1.20;;
35897;SDS011;21997;47.118;15.346;2022-07-06T09:25:12;3.05;;;0.93;;
35897;SDS011;21997;47.118;15.346;2022-07-06T09:27:39;4.72;;;0.88;;
35897;SDS011;21997;47.118;15.346;2022-07-06T09:30:07;6.13;;;1.00;;
35897;SDS011;21997;47.118;15.346;2022-07-06T09:32:44;1.83;;;0.70;;
35897;SDS011;21997;47.118;15.346;2022-07-06T09:40:33;1.92;;;0.95;;
35897;SDS011;21997;47.118;15.346;2022-07-06T09:43:09;2.20;;;0.80;;
35897;SDS011;21997;47.118;15.346;2022-07-06T09:45:38;1.65;;;0.90;;
35897;SDS011;21997;47.118;15.346;2022-07-06T09:48:18;1.90;;;0.98;;
35897;SDS011;21997;47.118;15.346;2022-07-06T09:50:51;1.30;;;0.80;;
35897;SDS011;21997;47.118;15.346;2022-07-06T09:53:22;1.42;;;1.08;;
35897;SDS011;21997;47.118;15.346;2022-07-06T09:55:53;1.45;;;0.90;;
35897;SDS011;21997;47.118;15.346;2022-07-06T09:58:20;1.20;;;1.10;;
35897;SDS011;21997;47.118;15.346;2022-07-06T10:00:46;1.33;;;0.80;;
35897;SDS011;21997;47.118;15.346;2022-07-06T10:03:12;1.23;;;1.00;;
35897;SDS011;21997;47.118;15.346;2022-07-06T10:05:39;1.88;;;0.75;;
35897;SDS011;21997;47.118;15.346;2022-07-06T10:08:05;2.72;;;0.63;;
35897;SDS011;21997;47.118;15.346;2022-07-06T10:10:34;1.08;;;0.80;;
35897;SDS011;21997;47.118;15.346;2022-07-06T10:13:00;1.30;;;0.82;;
35897;SDS011;21997;47.118;15.346;2022-07-06T10:15:27;1.67;;;1.05;;
35897;SDS011;21997;47.118;15.346;2022-07-06T10:17:54;1.15;;;0.90;;
35897;SDS011;21997;47.118;15.346;2022-07-06T10:20:20;2.05;;;0.95;;
35897;SDS011;21997;47.118;15.346;2022-07-06T10:22:49;0.85;;;0.75;;
35897;SDS011;21997;47.118;15.346;2022-07-06T10:25:18;2.90;;;0.82;;
35897;SDS011;21997;47.118;15.346;2022-07-06T10:27:47;1.92;;;1.27;;
35897;SDS011;21997;47.118;15.346;2022-07-06T10:30:16;1.00;;;0.80;;
35897;SDS011;21997;47.118;15.346;2022-07-06T10:32:42;0.95;;;0.70;;
35897;SDS011;21997;47.118;15.346;2022-07-06T10:35:10;1.15;;;0.88;;
35897;SDS011;21997;47.118;15.346;2022-07-06T10:37:35;1.10;;;0.63;;
35897;SDS011;21997;47.118;15.346;2022-07-06T10:40:01;1.08;;;0.70;;
35897;SDS011;21997;47.118;15.346;2022-07-06T10:45:21;1.80;;;0.85;;
35897;SDS011;21997;47.118;15.346;2022-07-06T10:50:36;0.52;;;0.50;;
35897;SDS011;21997;47.118;15.346;2022-07-06T10:53:11;1.80;;;0.60;;
35897;SDS011;21997;47.118;15.346;2022-07-06T10:55:39;0.90;;;0.80;;
35897;SDS011;21997;47.118;15.346;2022-07-06T10:58:05;0.90;;;0.80;;
35897;SDS011;21997;47.118;15.346;2022-07-06T11:06:06;1.83;;;1.00;;
35897;SDS011;21997;47.118;15.346;2022-07-06T11:13:52;0.95;;;0.77;;
35897;SDS011;21997;47.118;15.346;2022-07-06T11:16:17;1.27;;;0.90;;
35897;SDS011;21997;47.118;15.346;2022-07-06T11:18:47;1.35;;;1.20;;
35897;SDS011;21997;47.118;15.346;2022-07-06T11:21:23;1.05;;;0.80;;
35897;SDS011;21997;47.118;15.346;2022-07-06T11:23:57;1.67;;;0.63;;
35897;SDS011;21997;47.118;15.346;2022-07-06T11:26:23;2.40;;;0.70;;
35897;SDS011;21997;47.118;15.346;2022-07-06T11:28:50;0.98;;;0.80;;
35897;SDS011;21997;47.118;15.346;2022-07-06T11:31:16;2.03;;;0.68;;
35897;SDS011;21997;47.118;15.346;2022-07-06T11:33:44;2.67;;;0.90;;
35897;SDS011;21997;47.118;15.346;2022-07-06T11:36:11;1.50;;;0.88;;
35897;SDS011;21997;47.118;15.346;2022-07-06T11:38:41;1.10;;;0.95;;
35897;SDS011;21997;47.118;15.346;2022-07-06T11:41:07;2.20;;;1.08;;
35897;SDS011;21997;47.118;15.346;2022-07-06T11:43:33;0.75;;;0.75;;
35897;SDS011;21997;47.118;15.346;2022-07-06T11:45:59;1.88;;;1.10;;
35897;SDS011;21997;47.118;15.346;2022-07-06T11:48:24;4.35;;;1.30;;
35897;SDS011;21997;47.118;15.346;2022-07-06T11:51:03;0.70;;;0.70;;
35897;SDS011;21997;47.118;15.346;2022-07-06T11:53:28;1.00;;;0.80;;
35897;SDS011;21997;47.118;15.346;2022-07-06T11:55:54;1.35;;;0.80;;
35897;SDS011;21997;47.118;15.346;2022-07-06T11:58:21;2.33;;;0.70;;
35897;SDS011;21997;47.118;15.346;2022-07-06T12:01:04;0.82;;;0.70;;
35897;SDS011;21997;47.118;15.346;2022-07-06T12:03:34;0.70;;;0.63;;
35897;SDS011;21997;47.118;15.346;2022-07-06T12:06:03;12.63;;;1.85;;
35897;SDS011;21997;47.118;15.346;2022-07-06T12:08:29;1.05;;;0.80;;
35897;SDS011;21997;47.118;15.346;2022-07-06T12:10:55;1.67;;;0.82;;
35897;SDS011;21997;47.118;15.346;2022-07-06T12:13:22;0.85;;;0.60;;
35897;SDS011;21997;47.118;15.346;2022-07-06T12:15:48;1.50;;;0.88;;
35897;SDS011;21997;47.118;15.346;2022-07-06T12:18:13;1.00;;;0.50;;
35897;SDS011;21997;47.118;15.346;2022-07-06T12:20:39;1.10;;;0.70;;
35897;SDS011;21997;47.118;15.346;2022-07-06T12:23:04;0.88;;;0.80;;
35897;SDS011;21997;47.118;15.346;2022-07-06T12:25:32;1.08;;;0.52;;
35897;SDS011;21997;47.118;15.346;2022-07-06T12:27:58;1.25;;;0.57;;
35897;SDS011;21997;47.118;15.346;2022-07-06T12:30:23;1.30;;;0.82;;
35897;SDS011;21997;47.118;15.346;2022-07-06T12:35:51;1.30;;;0.88;;
35897;SDS011;21997;47.118;15.346;2022-07-06T12:38:26;2.05;;;0.70;;
35897;SDS011;21997;47.118;15.346;2022-07-06T12:40:52;1.08;;;0.80;;
35897;SDS011;21997;47.118;15.346;2022-07-06T12:43:40;1.85;;;0.60;;
35897;SDS011;21997;47.118;15.346;2022-07-06T12:49:04;2.63;;;1.02;;
35897;SDS011;21997;47.118;15.346;2022-07-06T12:54:22;1.35;;;0.70;;
35897;SDS011;21997;47.118;15.346;2022-07-06T13:04:59;1.00;;;0.90;;
35897;SDS011;21997;47.118;15.346;2022-07-06T13:07:26;2.65;;;1.25;;
35897;SDS011;21997;47.118;15.346;2022-07-06T13:09:52;4.88;;;1.10;;
35897;SDS011;21997;47.118;15.346;2022-07-06T13:12:18;4.90;;;1.42;;
35897;SDS011;21997;47.118;15.346;2022-07-06T13:14:44;2.50;;;0.73;;
35897;SDS011;21997;47.118;15.346;2022-07-06T13:17:09;2.97;;;0.60;;
35897;SDS011;21997;47.118;15.346;2022-07-06T13:19:34;0.50;;;0.50;;
35897;SDS011;21997;47.118;15.346;2022-07-06T13:22:00;1.02;;;0.50;;
35897;SDS011;21997;47.118;15.346;2022-07-06T13:24:25;1.30;;;0.60;;
35897;SDS011;21997;47.118;15.346;2022-07-06T13:26:53;3.05;;;1.27;;
35897;SDS011;21997;47.118;15.346;2022-07-06T13:29:19;1.42;;;0.90;;
35897;SDS011;21997;47.118;15.346;2022-07-06T13:31:44;1.35;;;0.68;;
35897;SDS011;21997;47.118;15.346;2022-07-06T13:34:09;0.98;;;0.60;;
35897;SDS011;21997;47.118;15.346;2022-07-06T13:36:35;2.25;;;0.73;;
35897;SDS011;21997;47.118;15.346;2022-07-06T13:39:01;8.38;;;2.58;;
35897;SDS011;21997;47.118;15.346;2022-07-06T13:41:27;1.08;;;0.93;;
35897;SDS011;21997;47.118;15.346;2022-07-06T13:43:52;1.63;;;0.90;;
35897;SDS011;21997;47.118;15.346;2022-07-06T13:46:18;0.82;;;0.82;;
35897;SDS011;21997;47.118;15.346;2022-07-06T13:48:43;1.88;;;0.60;;
35897;SDS011;21997;47.118;15.346;2022-07-06T13:51:09;2.58;;;1.38;;
35897;SDS011;21997;47.118;15.346;2022-07-06T13:53:34;3.60;;;0.80;;
35897;SDS011;21997;47.118;15.346;2022-07-06T13:56:00;2.17;;;0.60;;
35897;SDS011;21997;47.118;15.346;2022-07-06T13:58:26;0.85;;;0.63;;
35897;SDS011;21997;47.118;15.346;2022-07-06T14:00:51;5.90;;;0.70;;
35897;SDS011;21997;47.118;15.346;2022-07-06T14:03:16;3.47;;;1.10;;
35897;SDS011;21997;47.118;15.346;2022-07-06T14:05:42;1.98;;;0.75;;
35897;SDS011;21997;47.118;15.346;2022-07-06T14:08:07;3.00;;;1.10;;
35897;SDS011;21997;47.118;15.346;2022-07-06T14:10:33;0.75;;;0.70;;
35897;SDS011;21997;47.118;15.346;2022-07-06T14:12:58;1.77;;;0.50;;
35897;SDS011;21997;47.118;15.346;2022-07-06T14:15:24;6.00;;;1.80;;
35897;SDS011;21997;47.118;15.346;2022-07-06T14:17:50;13.73;;;3.53;;
35897;SDS011;21997;47.118;15.346;2022-07-06T14:20:15;7.13;;;1.40;;
35897;SDS011;21997;47.118;15.346;2022-07-06T14:22:41;0.65;;;0.65;;
35897;SDS011;21997;47.118;15.346;2022-07-06T14:25:07;1.25;;;0.63;;
35897;SDS011;21997;47.118;15.346;2022-07-06T14:27:33;1.88;;;0.70;;
35897;SDS011;21997;47.118;15.346;2022-07-06T14:29:58;1.67;;;1.00;;
35897;SDS011;21997;47.118;15.346;2022-07-06T14:32:24;1.02;;;0.60;;
35897;SDS011;21997;47.118;15.346;2022-07-06T14:34:50;2.50;;;1.17;;
35897;SDS011;21997;47.118;15.346;2022-07-06T14:37:16;1.15;;;0.80;;
35897;SDS011;21997;47.118;15.346;2022-07-06T14:39:41;2.92;;;0.77;;
35897;SDS011;21997;47.118;15.346;2022-07-06T14:42:07;1.00;;;0.80;;
35897;SDS011;21997;47.118;15.346;2022-07-06T14:44:33;1.67;;;0.70;;
35897;SDS011;21997;47.118;15.346;2022-07-06T14:46:58;2.08;;;1.40;;
35897;SDS011;21997;47.118;15.346;2022-07-06T14:49:24;4.47;;;0.88;;
35897;SDS011;21997;47.118;15.346;2022-07-06T14:51:56;1.52;;;0.82;;
35897;SDS011;21997;47.118;15.346;2022-07-06T14:54:22;0.95;;;0.80;;
35897;SDS011;21997;47.118;15.346;2022-07-06T14:56:50;1.08;;;0.95;;
35897;SDS011;21997;47.118;15.346;2022-07-06T14:59:16;1.92;;;0.73;;
35897;SDS011;21997;47.118;15.346;2022-07-06T15:01:41;1.40;;;0.80;;
35897;SDS011;21997;47.118;15.346;2022-07-06T15:04:07;1.13;;;1.02;;
35897;SDS011;21997;47.118;15.346;2022-07-06T15:06:33;4.95;;;1.10;;